sensor_id;sensor_type;location;lat;lon;timestamp;temperature;humidity
32614;DHT22;19031;51.400;6.770;2022-10-22T00:02:24;13.00;99.90
32614;DHT22;19031;51.400;6.770;2022-10-22T00:04:53;13.00;99.90
32614;DHT22;19031;51.400;6.770;2022-10-22T00:07:21;13.10;99.90
32614;DHT22;19031;51.400;6.770;2022-10-22T00:09:47;13.10;99.90
32614;DHT22;19031;51.400;6.770;2022-10-22T00:12:14;13.10;99.90
32614;DHT22;19031;51.400;6.770;2022-10-22T00:14:40;13.20;99.90
32614;DHT22;19031;51.400;6.770;2022-10-22T00:17:06;13.20;99.90
32614;DHT22;19031;51.400;6.770;2022-10-22T00:19:31;13.20;99.90
32614;DHT22;19031;51.400;6.770;2022-10-22T00:21:57;13.10;99.90
32614;DHT22;19031;51.400;6.770;2022-10-22T00:24:23;13.20;99.90
32614;DHT22;19031;51.400;6.770;2022-10-22T00:26:49;13.20;99.90
32614;DHT22;19031;51.400;6.770;2022-10-22T00:29:15;13.10;99.90
32614;DHT22;19031;51.400;6.770;2022-10-22T00:31:44;13.10;99.90
32614;DHT22;19031;51.400;6.770;2022-10-22T00:34:15;13.20;99.90
32614;DHT22;19031;51.400;6.770;2022-10-22T00:36:41;13.10;99.90
32614;DHT22;19031;51.400;6.770;2022-10-22T00:39:07;13.00;99.90
32614;DHT22;19031;51.400;6.770;2022-10-22T00:41:32;13.10;99.90
32614;DHT22;19031;51.400;6.770;2022-10-22T00:44:04;13.10;99.90
32614;DHT22;19031;51.400;6.770;2022-10-22T00:46:30;13.10;99.90
32614;DHT22;19031;51.400;6.770;2022-10-22T00:48:57;12.90;99.90
32614;DHT22;19031;51.400;6.770;2022-10-22T00:51:27;12.90;99.90
32614;DHT22;19031;51.400;6.770;2022-10-22T00:53:58;12.90;99.90
32614;DHT22;19031;51.400;6.770;2022-10-22T00:56:25;12.90;99.90
32614;DHT22;19031;51.400;6.770;2022-10-22T00:58:56;12.90;99.90
32614;DHT22;19031;51.400;6.770;2022-10-22T01:01:26;12.90;99.90
32614;DHT22;19031;51.400;6.770;2022-10-22T01:03:53;12.80;99.90
32614;DHT22;19031;51.400;6.770;2022-10-22T01:06:30;12.90;99.90
32614;DHT22;19031;51.400;6.770;2022-10-22T01:09:23;12.90;99.90
32614;DHT22;19031;51.400;6.770;2022-10-22T01:12:18;12.80;99.90
32614;DHT22;19031;51.400;6.770;2022-10-22T01:20:47;12.90;99.90
32614;DHT22;19031;51.400;6.770;2022-10-22T01:26:21;12.90;99.90
32614;DHT22;19031;51.400;6.770;2022-10-22T01:31:28;12.80;99.90
32614;DHT22;19031;51.400;6.770;2022-10-22T01:33:57;12.70;99.90
32614;DHT22;19031;51.400;6.770;2022-10-22T01:36:24;12.80;99.90
32614;DHT22;19031;51.400;6.770;2022-10-22T01:38:50;12.70;99.90
32614;DHT22;19031;51.400;6.770;2022-10-22T01:41:17;12.90;99.90
32614;DHT22;19031;51.400;6.770;2022-10-22T01:43:42;12.80;99.90
32614;DHT22;19031;51.400;6.770;2022-10-22T01:46:09;12.70;99.90
32614;DHT22;19031;51.400;6.770;2022-10-22T01:57:21;12.80;99.90
32614;DHT22;19031;51.400;6.770;2022-10-22T02:00:03;12.90;99.90
32614;DHT22;19031;51.400;6.770;2022-10-22T02:02:40;12.80;99.90
32614;DHT22;19031;51.400;6.770;2022-10-22T02:07:45;12.70;99.90
32614;DHT22;19031;51.400;6.770;2022-10-22T02:10:13;12.70;99.90
32614;DHT22;19031;51.400;6.770;2022-10-22T02:12:40;12.80;99.90
32614;DHT22;19031;51.400;6.770;2022-10-22T02:15:08;12.80;99.90
32614;DHT22;19031;51.400;6.770;2022-10-22T02:17:36;12.80;99.90
32614;DHT22;19031;51.400;6.770;2022-10-22T02:20:09;12.80;99.90
32614;DHT22;19031;51.400;6.770;2022-10-22T02:22:35;12.90;99.90
32614;DHT22;19031;51.400;6.770;2022-10-22T02:25:02;12.90;99.90
32614;DHT22;19031;51.400;6.770;2022-10-22T02:27:32;13.00;99.90
32614;DHT22;19031;51.400;6.770;2022-10-22T02:30:11;12.90;99.90
32614;DHT22;19031;51.400;6.770;2022-10-22T02:32:47;13.00;99.90
32614;DHT22;19031;51.400;6.770;2022-10-22T02:35:18;13.00;99.90
32614;DHT22;19031;51.400;6.770;2022-10-22T02:37:44;13.10;99.90
32614;DHT22;19031;51.400;6.770;2022-10-22T02:40:11;13.10;99.90
32614;DHT22;19031;51.400;6.770;2022-10-22T02:42:38;13.20;99.90
32614;DHT22;19031;51.400;6.770;2022-10-22T02:45:05;13.20;99.90
32614;DHT22;19031;51.400;6.770;2022-10-22T02:47:31;13.30;99.90
32614;DHT22;19031;51.400;6.770;2022-10-22T02:49:56;13.30;99.90
32614;DHT22;19031;51.400;6.770;2022-10-22T02:52:22;13.30;99.90
32614;DHT22;19031;51.400;6.770;2022-10-22T02:54:47;13.30;99.90
32614;DHT22;19031;51.400;6.770;2022-10-22T02:57:13;13.30;99.90
32614;DHT22;19031;51.400;6.770;2022-10-22T02:59:38;13.20;99.90
32614;DHT22;19031;51.400;6.770;2022-10-22T03:02:04;13.30;99.90
32614;DHT22;19031;51.400;6.770;2022-10-22T03:04:30;13.30;99.90
32614;DHT22;19031;51.400;6.770;2022-10-22T03:06:55;13.30;99.90
32614;DHT22;19031;51.400;6.770;2022-10-22T03:09:21;13.20;99.90
32614;DHT22;19031;51.400;6.770;2022-10-22T03:11:46;13.20;99.90
32614;DHT22;19031;51.400;6.770;2022-10-22T03:14:12;13.20;99.90
32614;DHT22;19031;51.400;6.770;2022-10-22T03:16:38;13.20;99.90
32614;DHT22;19031;51.400;6.770;2022-10-22T03:19:03;13.20;99.90
32614;DHT22;19031;51.400;6.770;2022-10-22T03:24:13;13.20;99.90
32614;DHT22;19031;51.400;6.770;2022-10-22T03:26:42;13.20;99.90
32614;DHT22;19031;51.400;6.770;2022-10-22T03:29:12;13.10;99.90
32614;DHT22;19031;51.400;6.770;2022-10-22T03:31:38;13.20;99.90
32614;DHT22;19031;51.400;6.770;2022-10-22T03:34:04;13.10;99.90
32614;DHT22;19031;51.400;6.770;2022-10-22T03:36:30;13.10;99.90
32614;DHT22;19031;51.400;6.770;2022-10-22T03:38:58;13.10;99.90
32614;DHT22;19031;51.400;6.770;2022-10-22T03:41:24;13.00;99.90
32614;DHT22;19031;51.400;6.770;2022-10-22T03:43:49;13.00;99.90
32614;DHT22;19031;51.400;6.770;2022-10-22T03:46:17;12.90;99.90
32614;DHT22;19031;51.400;6.770;2022-10-22T03:48:43;12.90;99.90
32614;DHT22;19031;51.400;6.770;2022-10-22T03:51:09;12.90;99.90
32614;DHT22;19031;51.400;6.770;2022-10-22T03:53:35;12.80;99.90
32614;DHT22;19031;51.400;6.770;2022-10-22T03:56:00;12.90;99.90
32614;DHT22;19031;51.400;6.770;2022-10-22T03:58:26;12.90;99.90
32614;DHT22;19031;51.400;6.770;2022-10-22T04:00:51;12.80;99.90
32614;DHT22;19031;51.400;6.770;2022-10-22T04:03:17;12.90;99.90
32614;DHT22;19031;51.400;6.770;2022-10-22T04:05:42;12.90;99.90
32614;DHT22;19031;51.400;6.770;2022-10-22T04:08:08;13.10;99.90
32614;DHT22;19031;51.400;6.770;2022-10-22T04:10:34;13.10;99.90
32614;DHT22;19031;51.400;6.770;2022-10-22T04:13:00;13.10;99.90
32614;DHT22;19031;51.400;6.770;2022-10-22T04:15:25;13.10;99.90
32614;DHT22;19031;51.400;6.770;2022-10-22T04:17:52;13.20;99.90
32614;DHT22;19031;51.400;6.770;2022-10-22T04:20:18;13.10;99.90
32614;DHT22;19031;51.400;6.770;2022-10-22T04:22:44;13.10;99.90
32614;DHT22;19031;51.400;6.770;2022-10-22T04:25:09;12.90;99.90
32614;DHT22;19031;51.400;6.770;2022-10-22T04:27:35;13.00;99.90
32614;DHT22;19031;51.400;6.770;2022-10-22T04:30:01;12.80;99.90
32614;DHT22;19031;51.400;6.770;2022-10-22T04:32:27;12.80;99.90
32614;DHT22;19031;51.400;6.770;2022-10-22T04:34:53;12.80;99.90
32614;DHT22;19031;51.400;6.770;2022-10-22T04:37:19;12.70;99.90
32614;DHT22;19031;51.400;6.770;2022-10-22T04:39:45;12.80;99.90
32614;DHT22;19031;51.400;6.770;2022-10-22T04:42:10;12.80;99.90
32614;DHT22;19031;51.400;6.770;2022-10-22T04:44:36;12.80;99.90
32614;DHT22;19031;51.400;6.770;2022-10-22T04:47:02;12.70;99.90
32614;DHT22;19031;51.400;6.770;2022-10-22T04:49:28;12.70;99.90
32614;DHT22;19031;51.400;6.770;2022-10-22T04:51:53;12.60;99.90
32614;DHT22;19031;51.400;6.770;2022-10-22T04:54:19;12.60;99.90
32614;DHT22;19031;51.400;6.770;2022-10-22T04:56:44;12.60;99.90
32614;DHT22;19031;51.400;6.770;2022-10-22T04:59:10;12.50;99.90
32614;DHT22;19031;51.400;6.770;2022-10-22T05:01:41;12.50;99.90
32614;DHT22;19031;51.400;6.770;2022-10-22T05:04:08;12.30;99.90
32614;DHT22;19031;51.400;6.770;2022-10-22T05:06:35;12.50;99.90
32614;DHT22;19031;51.400;6.770;2022-10-22T05:09:05;12.50;99.90
32614;DHT22;19031;51.400;6.770;2022-10-22T05:11:33;12.50;99.90
32614;DHT22;19031;51.400;6.770;2022-10-22T05:14:01;12.40;99.90
32614;DHT22;19031;51.400;6.770;2022-10-22T05:16:28;12.50;99.90
32614;DHT22;19031;51.400;6.770;2022-10-22T05:18:54;12.40;99.90
32614;DHT22;19031;51.400;6.770;2022-10-22T05:21:20;12.50;99.90
32614;DHT22;19031;51.400;6.770;2022-10-22T05:23:48;12.50;99.90
32614;DHT22;19031;51.400;6.770;2022-10-22T05:26:16;12.40;99.90
32614;DHT22;19031;51.400;6.770;2022-10-22T05:28:42;12.40;99.90
32614;DHT22;19031;51.400;6.770;2022-10-22T05:31:10;12.50;99.90
32614;DHT22;19031;51.400;6.770;2022-10-22T05:33:36;12.50;99.90
32614;DHT22;19031;51.400;6.770;2022-10-22T05:36:04;12.40;99.90
32614;DHT22;19031;51.400;6.770;2022-10-22T05:38:31;12.40;99.90
32614;DHT22;19031;51.400;6.770;2022-10-22T05:41:04;12.40;99.90
32614;DHT22;19031;51.400;6.770;2022-10-22T05:43:30;12.30;99.90
32614;DHT22;19031;51.400;6.770;2022-10-22T05:46:03;12.30;99.90
32614;DHT22;19031;51.400;6.770;2022-10-22T05:48:29;12.40;99.90
32614;DHT22;19031;51.400;6.770;2022-10-22T05:50:55;12.40;99.90
32614;DHT22;19031;51.400;6.770;2022-10-22T05:53:20;12.40;99.90
32614;DHT22;19031;51.400;6.770;2022-10-22T05:55:46;12.50;99.90
32614;DHT22;19031;51.400;6.770;2022-10-22T05:58:12;12.60;99.90
32614;DHT22;19031;51.400;6.770;2022-10-22T06:00:38;12.70;99.90
32614;DHT22;19031;51.400;6.770;2022-10-22T06:03:04;12.70;99.90
32614;DHT22;19031;51.400;6.770;2022-10-22T06:05:29;12.70;99.90
32614;DHT22;19031;51.400;6.770;2022-10-22T06:07:56;12.80;99.90
32614;DHT22;19031;51.400;6.770;2022-10-22T06:10:22;12.90;99.90
32614;DHT22;19031;51.400;6.770;2022-10-22T06:12:48;12.90;99.90
32614;DHT22;19031;51.400;6.770;2022-10-22T06:15:16;13.00;99.90
32614;DHT22;19031;51.400;6.770;2022-10-22T06:17:45;13.10;99.90
32614;DHT22;19031;51.400;6.770;2022-10-22T06:20:12;13.20;99.90
32614;DHT22;19031;51.400;6.770;2022-10-22T06:22:38;13.10;99.90
32614;DHT22;19031;51.400;6.770;2022-10-22T06:25:08;13.20;99.90
32614;DHT22;19031;51.400;6.770;2022-10-22T06:27:34;13.30;99.90
32614;DHT22;19031;51.400;6.770;2022-10-22T06:29:59;13.40;99.90
32614;DHT22;19031;51.400;6.770;2022-10-22T06:32:25;13.30;99.90
32614;DHT22;19031;51.400;6.770;2022-10-22T06:34:50;13.20;99.90
32614;DHT22;19031;51.400;6.770;2022-10-22T06:37:16;13.20;99.90
32614;DHT22;19031;51.400;6.770;2022-10-22T06:39:42;13.30;99.90
32614;DHT22;19031;51.400;6.770;2022-10-22T06:42:07;13.30;99.90
32614;DHT22;19031;51.400;6.770;2022-10-22T06:44:33;13.30;99.90
32614;DHT22;19031;51.400;6.770;2022-10-22T06:46:58;13.40;99.90
32614;DHT22;19031;51.400;6.770;2022-10-22T06:49:24;13.50;99.90
32614;DHT22;19031;51.400;6.770;2022-10-22T06:51:51;13.50;99.90
32614;DHT22;19031;51.400;6.770;2022-10-22T06:54:18;13.60;99.90
32614;DHT22;19031;51.400;6.770;2022-10-22T06:56:43;13.70;99.90
32614;DHT22;19031;51.400;6.770;2022-10-22T06:59:09;13.80;99.90
32614;DHT22;19031;51.400;6.770;2022-10-22T07:01:35;13.90;99.90
32614;DHT22;19031;51.400;6.770;2022-10-22T07:04:02;14.00;99.90
32614;DHT22;19031;51.400;6.770;2022-10-22T07:06:28;14.00;99.90
32614;DHT22;19031;51.400;6.770;2022-10-22T07:08:58;14.10;99.90
32614;DHT22;19031;51.400;6.770;2022-10-22T07:11:36;14.20;99.90
32614;DHT22;19031;51.400;6.770;2022-10-22T07:14:03;14.30;99.90
32614;DHT22;19031;51.400;6.770;2022-10-22T07:16:32;14.30;99.90
32614;DHT22;19031;51.400;6.770;2022-10-22T07:18:58;14.40;99.90
32614;DHT22;19031;51.400;6.770;2022-10-22T07:21:23;14.50;99.90
32614;DHT22;19031;51.400;6.770;2022-10-22T07:23:50;14.60;99.90
32614;DHT22;19031;51.400;6.770;2022-10-22T07:26:16;14.60;99.90
32614;DHT22;19031;51.400;6.770;2022-10-22T07:28:42;14.70;99.90
32614;DHT22;19031;51.400;6.770;2022-10-22T07:31:09;14.70;99.90
32614;DHT22;19031;51.400;6.770;2022-10-22T07:33:36;14.70;99.90
32614;DHT22;19031;51.400;6.770;2022-10-22T07:36:03;14.80;99.90
32614;DHT22;19031;51.400;6.770;2022-10-22T07:38:30;14.80;99.90
32614;DHT22;19031;51.400;6.770;2022-10-22T07:40:56;14.90;99.90
32614;DHT22;19031;51.400;6.770;2022-10-22T07:43:22;15.00;99.90
32614;DHT22;19031;51.400;6.770;2022-10-22T07:45:47;15.00;99.90
32614;DHT22;19031;51.400;6.770;2022-10-22T07:48:13;15.10;99.90
32614;DHT22;19031;51.400;6.770;2022-10-22T07:50:39;15.20;99.90
32614;DHT22;19031;51.400;6.770;2022-10-22T07:53:04;15.30;99.90
32614;DHT22;19031;51.400;6.770;2022-10-22T07:55:30;15.30;99.90
32614;DHT22;19031;51.400;6.770;2022-10-22T07:57:55;15.20;99.90
32614;DHT22;19031;51.400;6.770;2022-10-22T08:00:21;15.40;99.90
32614;DHT22;19031;51.400;6.770;2022-10-22T08:02:47;15.40;99.90
32614;DHT22;19031;51.400;6.770;2022-10-22T08:05:12;15.40;99.90
32614;DHT22;19031;51.400;6.770;2022-10-22T08:07:39;15.50;99.90
32614;DHT22;19031;51.400;6.770;2022-10-22T08:10:05;15.60;99.90
32614;DHT22;19031;51.400;6.770;2022-10-22T08:12:31;15.70;99.90
32614;DHT22;19031;51.400;6.770;2022-10-22T08:14:57;15.70;99.90
32614;DHT22;19031;51.400;6.770;2022-10-22T08:17:22;15.70;99.90
32614;DHT22;19031;51.400;6.770;2022-10-22T08:19:48;15.80;99.90
32614;DHT22;19031;51.400;6.770;2022-10-22T08:22:14;15.80;99.90
32614;DHT22;19031;51.400;6.770;2022-10-22T08:24:39;15.80;99.90
32614;DHT22;19031;51.400;6.770;2022-10-22T08:27:05;15.80;99.90
32614;DHT22;19031;51.400;6.770;2022-10-22T08:29:31;15.70;99.90
32614;DHT22;19031;51.400;6.770;2022-10-22T08:31:56;15.70;99.90
32614;DHT22;19031;51.400;6.770;2022-10-22T08:34:22;15.60;99.90
32614;DHT22;19031;51.400;6.770;2022-10-22T08:36:47;15.60;99.90
32614;DHT22;19031;51.400;6.770;2022-10-22T08:39:13;15.60;99.90
32614;DHT22;19031;51.400;6.770;2022-10-22T08:42:11;15.60;99.90
32614;DHT22;19031;51.400;6.770;2022-10-22T08:44:54;15.60;99.90
32614;DHT22;19031;51.400;6.770;2022-10-22T08:47:43;15.70;99.90
32614;DHT22;19031;51.400;6.770;2022-10-22T08:50:18;15.80;99.90
32614;DHT22;19031;51.400;6.770;2022-10-22T08:52:49;15.80;99.90
32614;DHT22;19031;51.400;6.770;2022-10-22T08:55:16;15.80;99.90
32614;DHT22;19031;51.400;6.770;2022-10-22T09:00:40;16.00;99.90
32614;DHT22;19031;51.400;6.770;2022-10-22T09:03:29;16.10;99.90
32614;DHT22;19031;51.400;6.770;2022-10-22T09:06:10;16.10;99.90
32614;DHT22;19031;51.400;6.770;2022-10-22T09:08:37;16.20;99.90
32614;DHT22;19031;51.400;6.770;2022-10-22T09:11:14;16.20;99.90
32614;DHT22;19031;51.400;6.770;2022-10-22T09:13:42;16.40;99.90
32614;DHT22;19031;51.400;6.770;2022-10-22T09:16:16;16.40;99.90
32614;DHT22;19031;51.400;6.770;2022-10-22T09:21:26;16.60;99.90
32614;DHT22;19031;51.400;6.770;2022-10-22T09:26:18;16.70;99.90
32614;DHT22;19031;51.400;6.770;2022-10-22T09:28:48;16.70;99.90
32614;DHT22;19031;51.400;6.770;2022-10-22T09:31:14;16.70;99.90
32614;DHT22;19031;51.400;6.770;2022-10-22T09:33:41;16.80;99.90
32614;DHT22;19031;51.400;6.770;2022-10-22T09:36:12;16.70;99.90
32614;DHT22;19031;51.400;6.770;2022-10-22T09:38:48;16.80;99.90
32614;DHT22;19031;51.400;6.770;2022-10-22T09:41:16;16.80;99.90
32614;DHT22;19031;51.400;6.770;2022-10-22T09:43:46;16.80;99.90
32614;DHT22;19031;51.400;6.770;2022-10-22T09:46:17;16.90;99.90
32614;DHT22;19031;51.400;6.770;2022-10-22T09:49:05;16.90;99.90
32614;DHT22;19031;51.400;6.770;2022-10-22T09:54:17;17.10;99.90
32614;DHT22;19031;51.400;6.770;2022-10-22T09:56:52;17.20;99.90
32614;DHT22;19031;51.400;6.770;2022-10-22T09:59:23;17.30;99.90
32614;DHT22;19031;51.400;6.770;2022-10-22T10:01:56;17.40;99.90
32614;DHT22;19031;51.400;6.770;2022-10-22T10:04:22;17.50;99.90
32614;DHT22;19031;51.400;6.770;2022-10-22T10:06:53;17.50;99.90
32614;DHT22;19031;51.400;6.770;2022-10-22T10:09:22;17.60;99.90
32614;DHT22;19031;51.400;6.770;2022-10-22T10:14:41;17.60;99.90
32614;DHT22;19031;51.400;6.770;2022-10-22T10:17:25;17.70;99.90
32614;DHT22;19031;51.400;6.770;2022-10-22T10:22:54;17.70;99.90
32614;DHT22;19031;51.400;6.770;2022-10-22T10:25:31;17.80;99.90
32614;DHT22;19031;51.400;6.770;2022-10-22T10:29:01;17.90;99.90
32614;DHT22;19031;51.400;6.770;2022-10-22T10:39:59;18.00;99.90
32614;DHT22;19031;51.400;6.770;2022-10-22T10:42:47;17.90;99.90
32614;DHT22;19031;51.400;6.770;2022-10-22T10:50:50;18.20;99.60
32614;DHT22;19031;51.400;6.770;2022-10-22T10:56:00;18.50;98.50
32614;DHT22;19031;51.400;6.770;2022-10-22T10:58:53;18.50;97.40
32614;DHT22;19031;51.400;6.770;2022-10-22T11:01:33;18.50;97.90
32614;DHT22;19031;51.400;6.770;2022-10-22T11:06:48;18.50;98.50
32614;DHT22;19031;51.400;6.770;2022-10-22T11:09:25;18.60;97.50
32614;DHT22;19031;51.400;6.770;2022-10-22T11:12:03;18.50;96.90
32614;DHT22;19031;51.400;6.770;2022-10-22T11:14:40;18.50;97.10
32614;DHT22;19031;51.400;6.770;2022-10-22T11:17:16;18.60;79.30
32614;DHT22;19031;51.400;6.770;2022-10-22T11:22:36;18.70;69.70
32614;DHT22;19031;51.400;6.770;2022-10-22T11:27:53;18.60;51.40
32614;DHT22;19031;51.400;6.770;2022-10-22T11:30:22;18.50;72.20
32614;DHT22;19031;51.400;6.770;2022-10-22T11:32:57;18.40;51.50
32614;DHT22;19031;51.400;6.770;2022-10-22T11:35:32;18.40;52.90
32614;DHT22;19031;51.400;6.770;2022-10-22T11:37:58;18.40;55.30
32614;DHT22;19031;51.400;6.770;2022-10-22T11:43:11;18.30;55.00
32614;DHT22;19031;51.400;6.770;2022-10-22T11:46:42;18.20;47.20
32614;DHT22;19031;51.400;6.770;2022-10-22T11:48:42;18.00;56.40
32614;DHT22;19031;51.400;6.770;2022-10-22T11:54:01;18.10;61.90
32614;DHT22;19031;51.400;6.770;2022-10-22T11:56:36;18.10;61.70
32614;DHT22;19031;51.400;6.770;2022-10-22T11:59:03;18.20;48.30
32614;DHT22;19031;51.400;6.770;2022-10-22T12:01:41;18.10;54.70
32614;DHT22;19031;51.400;6.770;2022-10-22T12:04:39;18.00;58.80
32614;DHT22;19031;51.400;6.770;2022-10-22T12:07:32;18.00;56.40
32614;DHT22;19031;51.400;6.770;2022-10-22T12:09:58;18.10;55.60
32614;DHT22;19031;51.400;6.770;2022-10-22T12:12:24;18.10;54.40
32614;DHT22;19031;51.400;6.770;2022-10-22T12:14:56;18.10;58.00
32614;DHT22;19031;51.400;6.770;2022-10-22T12:17:22;18.10;55.50
32614;DHT22;19031;51.400;6.770;2022-10-22T12:19:57;18.10;53.30
32614;DHT22;19031;51.400;6.770;2022-10-22T12:22:27;18.20;68.80
32614;DHT22;19031;51.400;6.770;2022-10-22T12:24:55;18.20;57.10
32614;DHT22;19031;51.400;6.770;2022-10-22T12:27:26;18.10;57.10
32614;DHT22;19031;51.400;6.770;2022-10-22T12:29:56;18.20;54.80
32614;DHT22;19031;51.400;6.770;2022-10-22T12:32:23;18.20;52.80
32614;DHT22;19031;51.400;6.770;2022-10-22T12:34:50;18.20;52.90
32614;DHT22;19031;51.400;6.770;2022-10-22T12:37:17;18.20;58.00
32614;DHT22;19031;51.400;6.770;2022-10-22T12:39:44;18.30;50.50
32614;DHT22;19031;51.400;6.770;2022-10-22T12:42:16;18.40;50.90
32614;DHT22;19031;51.400;6.770;2022-10-22T12:44:43;18.60;42.30
32614;DHT22;19031;51.400;6.770;2022-10-22T12:47:16;18.70;49.00
32614;DHT22;19031;51.400;6.770;2022-10-22T12:49:45;19.00;44.60
32614;DHT22;19031;51.400;6.770;2022-10-22T12:52:16;19.00;25.50
32614;DHT22;19031;51.400;6.770;2022-10-22T12:54:45;19.10;16.40
32614;DHT22;19031;51.400;6.770;2022-10-22T12:57:15;19.40;21.30
32614;DHT22;19031;51.400;6.770;2022-10-22T12:59:42;19.30;17.70
32614;DHT22;19031;51.400;6.770;2022-10-22T13:02:23;19.40;5.00
32614;DHT22;19031;51.400;6.770;2022-10-22T13:07:47;19.30;1.00
32614;DHT22;19031;51.400;6.770;2022-10-22T13:10:34;19.40;1.00
32614;DHT22;19031;51.400;6.770;2022-10-22T13:13:00;19.30;1.00
32614;DHT22;19031;51.400;6.770;2022-10-22T13:15:37;19.30;1.00
32614;DHT22;19031;51.400;6.770;2022-10-22T13:18:18;19.30;15.10
32614;DHT22;19031;51.400;6.770;2022-10-22T13:23:24;19.30;1.00
32614;DHT22;19031;51.400;6.770;2022-10-22T13:26:13;19.20;6.20
32614;DHT22;19031;51.400;6.770;2022-10-22T13:28:39;19.20;10.30
32614;DHT22;19031;51.400;6.770;2022-10-22T13:31:14;19.20;6.00
32614;DHT22;19031;51.400;6.770;2022-10-22T13:33:43;19.20;22.10
32614;DHT22;19031;51.400;6.770;2022-10-22T13:36:13;19.20;4.30
32614;DHT22;19031;51.400;6.770;2022-10-22T13:38:39;19.30;7.60
32614;DHT22;19031;51.400;6.770;2022-10-22T13:41:21;19.30;1.00
32614;DHT22;19031;51.400;6.770;2022-10-22T13:43:47;19.20;1.00
32614;DHT22;19031;51.400;6.770;2022-10-22T13:46:13;19.00;1.00
32614;DHT22;19031;51.400;6.770;2022-10-22T13:48:39;19.10;9.20
32614;DHT22;19031;51.400;6.770;2022-10-22T13:51:19;18.90;5.30
32614;DHT22;19031;51.400;6.770;2022-10-22T13:53:46;18.80;6.50
32614;DHT22;19031;51.400;6.770;2022-10-22T13:56:13;18.80;19.10
32614;DHT22;19031;51.400;6.770;2022-10-22T13:58:40;18.60;22.80
32614;DHT22;19031;51.400;6.770;2022-10-22T14:01:30;18.60;12.20
32614;DHT22;19031;51.400;6.770;2022-10-22T14:03:58;18.70;16.50
32614;DHT22;19031;51.400;6.770;2022-10-22T14:06:25;18.80;25.00
32614;DHT22;19031;51.400;6.770;2022-10-22T14:09:01;18.70;1.00
32614;DHT22;19031;51.400;6.770;2022-10-22T14:11:26;18.70;22.70
32614;DHT22;19031;51.400;6.770;2022-10-22T14:13:53;18.70;18.50
32614;DHT22;19031;51.400;6.770;2022-10-22T14:16:22;18.50;6.80
32614;DHT22;19031;51.400;6.770;2022-10-22T14:18:49;18.40;20.40
32614;DHT22;19031;51.400;6.770;2022-10-22T14:21:16;18.40;23.80
32614;DHT22;19031;51.400;6.770;2022-10-22T14:23:44;18.30;23.60
32614;DHT22;19031;51.400;6.770;2022-10-22T14:26:28;18.30;33.70
32614;DHT22;19031;51.400;6.770;2022-10-22T14:28:57;18.40;27.60
32614;DHT22;19031;51.400;6.770;2022-10-22T14:31:23;18.30;26.70
32614;DHT22;19031;51.400;6.770;2022-10-22T14:33:49;18.30;39.20
32614;DHT22;19031;51.400;6.770;2022-10-22T14:36:16;18.30;35.10
32614;DHT22;19031;51.400;6.770;2022-10-22T14:38:45;18.30;30.70
32614;DHT22;19031;51.400;6.770;2022-10-22T14:41:23;18.40;28.00
32614;DHT22;19031;51.400;6.770;2022-10-22T14:43:50;18.50;36.70
32614;DHT22;19031;51.400;6.770;2022-10-22T14:46:17;18.40;28.70
32614;DHT22;19031;51.400;6.770;2022-10-22T14:48:43;18.50;28.10
32614;DHT22;19031;51.400;6.770;2022-10-22T14:51:12;18.40;20.30
32614;DHT22;19031;51.400;6.770;2022-10-22T14:53:38;18.40;26.50
32614;DHT22;19031;51.400;6.770;2022-10-22T14:56:04;18.40;26.30
32614;DHT22;19031;51.400;6.770;2022-10-22T14:58:30;18.50;32.00
32614;DHT22;19031;51.400;6.770;2022-10-22T15:00:55;18.50;22.00
32614;DHT22;19031;51.400;6.770;2022-10-22T15:03:21;18.50;37.90
32614;DHT22;19031;51.400;6.770;2022-10-22T15:05:50;18.40;38.10
32614;DHT22;19031;51.400;6.770;2022-10-22T15:08:18;18.40;30.40
32614;DHT22;19031;51.400;6.770;2022-10-22T15:10:45;18.40;36.80
32614;DHT22;19031;51.400;6.770;2022-10-22T15:13:10;18.30;29.10
32614;DHT22;19031;51.400;6.770;2022-10-22T15:15:39;18.30;28.90
32614;DHT22;19031;51.400;6.770;2022-10-22T15:18:05;18.30;31.70
32614;DHT22;19031;51.400;6.770;2022-10-22T15:20:30;18.20;31.10
32614;DHT22;19031;51.400;6.770;2022-10-22T15:22:56;18.10;26.70
32614;DHT22;19031;51.400;6.770;2022-10-22T15:25:22;18.20;29.80
32614;DHT22;19031;51.400;6.770;2022-10-22T15:27:47;18.10;36.80
32614;DHT22;19031;51.400;6.770;2022-10-22T15:30:13;18.00;37.40
32614;DHT22;19031;51.400;6.770;2022-10-22T15:32:39;18.00;35.40
32614;DHT22;19031;51.400;6.770;2022-10-22T15:35:05;17.90;39.30
32614;DHT22;19031;51.400;6.770;2022-10-22T15:37:31;17.80;39.60
32614;DHT22;19031;51.400;6.770;2022-10-22T15:39:57;17.60;42.50
32614;DHT22;19031;51.400;6.770;2022-10-22T15:42:24;17.60;50.30
32614;DHT22;19031;51.400;6.770;2022-10-22T15:44:56;17.40;55.40
32614;DHT22;19031;51.400;6.770;2022-10-22T15:47:23;17.40;56.80
32614;DHT22;19031;51.400;6.770;2022-10-22T15:49:52;17.20;60.60
32614;DHT22;19031;51.400;6.770;2022-10-22T15:52:18;17.10;66.50
32614;DHT22;19031;51.400;6.770;2022-10-22T15:54:46;17.00;69.90
32614;DHT22;19031;51.400;6.770;2022-10-22T15:57:11;16.80;71.60
32614;DHT22;19031;51.400;6.770;2022-10-22T15:59:37;16.80;75.10
32614;DHT22;19031;51.400;6.770;2022-10-22T16:02:03;16.70;80.90
32614;DHT22;19031;51.400;6.770;2022-10-22T16:04:29;16.50;82.50
32614;DHT22;19031;51.400;6.770;2022-10-22T16:06:54;16.30;87.90
32614;DHT22;19031;51.400;6.770;2022-10-22T16:09:24;16.30;90.80
32614;DHT22;19031;51.400;6.770;2022-10-22T16:11:51;16.10;92.30
32614;DHT22;19031;51.400;6.770;2022-10-22T16:14:18;16.00;93.70
32614;DHT22;19031;51.400;6.770;2022-10-22T16:16:47;15.90;94.90
32614;DHT22;19031;51.400;6.770;2022-10-22T16:19:15;15.70;96.20
32614;DHT22;19031;51.400;6.770;2022-10-22T16:21:41;15.60;97.20
32614;DHT22;19031;51.400;6.770;2022-10-22T16:24:10;15.50;98.20
32614;DHT22;19031;51.400;6.770;2022-10-22T16:26:36;15.40;99.00
32614;DHT22;19031;51.400;6.770;2022-10-22T16:29:04;15.30;99.40
32614;DHT22;19031;51.400;6.770;2022-10-22T16:31:30;15.20;99.90
32614;DHT22;19031;51.400;6.770;2022-10-22T16:33:56;15.10;99.90
32614;DHT22;19031;51.400;6.770;2022-10-22T16:36:22;15.00;99.90
32614;DHT22;19031;51.400;6.770;2022-10-22T16:38:48;14.90;99.90
32614;DHT22;19031;51.400;6.770;2022-10-22T16:43:42;14.70;99.90
32614;DHT22;19031;51.400;6.770;2022-10-22T16:46:09;14.60;99.90
32614;DHT22;19031;51.400;6.770;2022-10-22T16:48:35;14.50;99.90
32614;DHT22;19031;51.400;6.770;2022-10-22T16:51:06;14.40;99.90
32614;DHT22;19031;51.400;6.770;2022-10-22T16:53:32;14.30;99.90
32614;DHT22;19031;51.400;6.770;2022-10-22T16:55:57;14.20;99.90
32614;DHT22;19031;51.400;6.770;2022-10-22T16:58:23;14.10;99.90
32614;DHT22;19031;51.400;6.770;2022-10-22T17:00:49;14.10;99.90
32614;DHT22;19031;51.400;6.770;2022-10-22T17:03:14;14.00;99.90
32614;DHT22;19031;51.400;6.770;2022-10-22T17:05:40;13.90;99.90